sensor_id;sensor_type;location;lat;lon;timestamp;P1;durP1;ratioP1;P2;durP2;ratioP2
65373;SDS011;52070;53.760;9.678;2024-03-02T00:00:48;22.20;;;9.75;;
65373;SDS011;52070;53.760;9.678;2024-03-02T00:03:17;22.38;;;10.20;;
65373;SDS011;52070;53.760;9.678;2024-03-02T00:05:47;19.45;;;9.32;;
65373;SDS011;52070;53.760;9.678;2024-03-02T00:08:17;22.63;;;9.48;;
65373;SDS011;52070;53.760;9.678;2024-03-02T00:10:50;21.23;;;10.20;;
65373;SDS011;52070;53.760;9.678;2024-03-02T00:13:19;22.65;;;9.90;;
65373;SDS011;52070;53.760;9.678;2024-03-02T00:15:48;21.83;;;10.45;;
65373;SDS011;52070;53.760;9.678;2024-03-02T00:18:20;22.52;;;10.23;;
65373;SDS011;52070;53.760;9.678;2024-03-02T00:20:47;21.27;;;9.67;;
65373;SDS011;52070;53.760;9.678;2024-03-02T00:23:15;22.38;;;9.20;;
65373;SDS011;52070;53.760;9.678;2024-03-02T00:25:44;19.80;;;10.15;;
65373;SDS011;52070;53.760;9.678;2024-03-02T00:28:14;21.98;;;9.85;;
65373;SDS011;52070;53.760;9.678;2024-03-02T00:33:27;20.67;;;9.52;;
65373;SDS011;52070;53.760;9.678;2024-03-02T00:35:57;21.60;;;9.27;;
65373;SDS011;52070;53.760;9.678;2024-03-02T00:38:25;18.80;;;9.20;;
65373;SDS011;52070;53.760;9.678;2024-03-02T00:40:53;17.50;;;9.18;;
65373;SDS011;52070;53.760;9.678;2024-03-02T00:43:41;20.13;;;9.48;;
65373;SDS011;52070;53.760;9.678;2024-03-02T00:46:10;21.38;;;10.18;;
65373;SDS011;52070;53.760;9.678;2024-03-02T00:48:40;22.83;;;9.85;;
65373;SDS011;52070;53.760;9.678;2024-03-02T00:51:14;23.52;;;9.93;;
65373;SDS011;52070;53.760;9.678;2024-03-02T00:53:41;22.17;;;10.60;;
65373;SDS011;52070;53.760;9.678;2024-03-02T00:56:09;21.95;;;10.02;;
65373;SDS011;52070;53.760;9.678;2024-03-02T00:58:37;19.92;;;9.40;;
65373;SDS011;52070;53.760;9.678;2024-03-02T01:01:04;20.52;;;9.60;;
65373;SDS011;52070;53.760;9.678;2024-03-02T01:03:32;22.05;;;9.98;;
65373;SDS011;52070;53.760;9.678;2024-03-02T01:06:01;18.40;;;9.57;;
65373;SDS011;52070;53.760;9.678;2024-03-02T01:08:28;20.00;;;9.45;;
65373;SDS011;52070;53.760;9.678;2024-03-02T01:10:55;23.70;;;9.63;;
65373;SDS011;52070;53.760;9.678;2024-03-02T01:13:22;21.98;;;9.02;;
65373;SDS011;52070;53.760;9.678;2024-03-02T01:15:49;19.70;;;10.10;;
65373;SDS011;52070;53.760;9.678;2024-03-02T01:18:16;21.70;;;9.32;;
65373;SDS011;52070;53.760;9.678;2024-03-02T01:20:43;20.73;;;10.07;;
65373;SDS011;52070;53.760;9.678;2024-03-02T01:23:12;23.85;;;9.68;;
65373;SDS011;52070;53.760;9.678;2024-03-02T01:25:39;24.40;;;9.73;;
65373;SDS011;52070;53.760;9.678;2024-03-02T01:28:06;16.90;;;9.55;;
65373;SDS011;52070;53.760;9.678;2024-03-02T01:30:33;23.67;;;11.07;;
65373;SDS011;52070;53.760;9.678;2024-03-02T01:33:00;20.90;;;8.95;;
65373;SDS011;52070;53.760;9.678;2024-03-02T01:35:27;24.95;;;10.60;;
65373;SDS011;52070;53.760;9.678;2024-03-02T01:37:54;21.13;;;9.88;;
65373;SDS011;52070;53.760;9.678;2024-03-02T01:40:23;21.45;;;9.93;;
65373;SDS011;52070;53.760;9.678;2024-03-02T01:42:52;22.77;;;10.32;;
65373;SDS011;52070;53.760;9.678;2024-03-02T01:45:19;22.00;;;10.07;;
65373;SDS011;52070;53.760;9.678;2024-03-02T01:47:46;21.90;;;10.25;;
65373;SDS011;52070;53.760;9.678;2024-03-02T01:50:13;24.35;;;10.30;;
65373;SDS011;52070;53.760;9.678;2024-03-02T01:52:41;19.13;;;9.70;;
65373;SDS011;52070;53.760;9.678;2024-03-02T01:55:09;20.70;;;10.15;;
65373;SDS011;52070;53.760;9.678;2024-03-02T01:57:37;21.25;;;10.35;;
65373;SDS011;52070;53.760;9.678;2024-03-02T02:00:05;22.70;;;10.50;;
65373;SDS011;52070;53.760;9.678;2024-03-02T02:02:35;19.48;;;9.65;;
65373;SDS011;52070;53.760;9.678;2024-03-02T02:05:02;21.60;;;10.18;;
65373;SDS011;52070;53.760;9.678;2024-03-02T02:07:29;20.83;;;9.95;;
65373;SDS011;52070;53.760;9.678;2024-03-02T02:09:56;19.33;;;10.52;;
65373;SDS011;52070;53.760;9.678;2024-03-02T02:12:23;21.55;;;10.52;;
65373;SDS011;52070;53.760;9.678;2024-03-02T02:14:52;21.60;;;10.18;;
65373;SDS011;52070;53.760;9.678;2024-03-02T02:17:19;21.85;;;10.55;;
65373;SDS011;52070;53.760;9.678;2024-03-02T02:19:46;23.15;;;9.93;;
65373;SDS011;52070;53.760;9.678;2024-03-02T02:22:14;23.58;;;10.18;;
65373;SDS011;52070;53.760;9.678;2024-03-02T02:24:41;20.25;;;10.07;;
65373;SDS011;52070;53.760;9.678;2024-03-02T02:27:09;23.20;;;10.30;;
65373;SDS011;52070;53.760;9.678;2024-03-02T02:29:36;21.73;;;10.63;;
65373;SDS011;52070;53.760;9.678;2024-03-02T02:32:03;21.23;;;10.43;;
65373;SDS011;52070;53.760;9.678;2024-03-02T02:34:31;31.02;;;11.35;;
65373;SDS011;52070;53.760;9.678;2024-03-02T02:36:57;29.52;;;10.95;;
65373;SDS011;52070;53.760;9.678;2024-03-02T02:39:26;24.52;;;10.88;;
65373;SDS011;52070;53.760;9.678;2024-03-02T02:41:52;26.05;;;11.18;;
65373;SDS011;52070;53.760;9.678;2024-03-02T02:44:19;28.00;;;10.63;;
65373;SDS011;52070;53.760;9.678;2024-03-02T02:46:46;27.80;;;11.18;;
65373;SDS011;52070;53.760;9.678;2024-03-02T02:49:13;20.75;;;10.30;;
65373;SDS011;52070;53.760;9.678;2024-03-02T02:51:40;28.27;;;12.65;;
65373;SDS011;52070;53.760;9.678;2024-03-02T02:54:07;27.42;;;11.55;;
65373;SDS011;52070;53.760;9.678;2024-03-02T02:56:35;24.98;;;11.85;;
65373;SDS011;52070;53.760;9.678;2024-03-02T02:59:02;25.65;;;12.25;;
65373;SDS011;52070;53.760;9.678;2024-03-02T03:01:29;30.45;;;12.30;;
65373;SDS011;52070;53.760;9.678;2024-03-02T03:03:56;24.05;;;12.25;;
65373;SDS011;52070;53.760;9.678;2024-03-02T03:06:22;33.90;;;12.75;;
65373;SDS011;52070;53.760;9.678;2024-03-02T03:08:49;25.38;;;12.05;;
65373;SDS011;52070;53.760;9.678;2024-03-02T03:11:16;30.25;;;13.70;;
65373;SDS011;52070;53.760;9.678;2024-03-02T03:13:44;27.85;;;12.63;;
65373;SDS011;52070;53.760;9.678;2024-03-02T03:16:11;29.50;;;12.90;;
65373;SDS011;52070;53.760;9.678;2024-03-02T03:18:38;29.73;;;13.60;;
65373;SDS011;52070;53.760;9.678;2024-03-02T03:21:05;29.73;;;13.70;;
65373;SDS011;52070;53.760;9.678;2024-03-02T03:23:32;34.78;;;13.40;;
65373;SDS011;52070;53.760;9.678;2024-03-02T03:25:59;32.53;;;14.27;;
65373;SDS011;52070;53.760;9.678;2024-03-02T03:28:26;32.70;;;13.63;;
65373;SDS011;52070;53.760;9.678;2024-03-02T03:30:54;30.33;;;13.27;;
65373;SDS011;52070;53.760;9.678;2024-03-02T03:33:21;30.95;;;13.43;;
65373;SDS011;52070;53.760;9.678;2024-03-02T03:35:48;38.50;;;14.68;;
65373;SDS011;52070;53.760;9.678;2024-03-02T03:38:15;32.30;;;13.63;;
65373;SDS011;52070;53.760;9.678;2024-03-02T03:40:42;35.25;;;14.20;;
65373;SDS011;52070;53.760;9.678;2024-03-02T03:43:10;33.03;;;14.35;;
65373;SDS011;52070;53.760;9.678;2024-03-02T03:45:37;37.13;;;14.82;;
65373;SDS011;52070;53.760;9.678;2024-03-02T03:48:06;35.17;;;15.38;;
65373;SDS011;52070;53.760;9.678;2024-03-02T03:50:33;32.25;;;15.07;;
65373;SDS011;52070;53.760;9.678;2024-03-02T03:53:00;33.72;;;14.98;;
65373;SDS011;52070;53.760;9.678;2024-03-02T03:55:26;35.90;;;16.13;;
65373;SDS011;52070;53.760;9.678;2024-03-02T03:57:53;36.45;;;16.02;;
65373;SDS011;52070;53.760;9.678;2024-03-02T04:00:20;38.00;;;15.80;;
65373;SDS011;52070;53.760;9.678;2024-03-02T04:02:47;39.67;;;17.05;;
65373;SDS011;52070;53.760;9.678;2024-03-02T04:05:15;36.80;;;15.57;;
65373;SDS011;52070;53.760;9.678;2024-03-02T04:07:42;39.55;;;17.02;;
65373;SDS011;52070;53.760;9.678;2024-03-02T04:10:10;37.85;;;16.90;;
65373;SDS011;52070;53.760;9.678;2024-03-02T04:12:38;36.22;;;16.33;;
65373;SDS011;52070;53.760;9.678;2024-03-02T04:15:05;40.92;;;16.52;;
65373;SDS011;52070;53.760;9.678;2024-03-02T04:17:33;36.75;;;16.00;;
65373;SDS011;52070;53.760;9.678;2024-03-02T04:20:01;34.58;;;15.10;;
65373;SDS011;52070;53.760;9.678;2024-03-02T04:22:32;38.35;;;16.20;;
65373;SDS011;52070;53.760;9.678;2024-03-02T04:25:00;37.60;;;16.73;;
65373;SDS011;52070;53.760;9.678;2024-03-02T04:27:27;40.33;;;16.58;;
65373;SDS011;52070;53.760;9.678;2024-03-02T04:29:53;33.03;;;15.27;;
65373;SDS011;52070;53.760;9.678;2024-03-02T04:32:20;41.03;;;16.23;;
65373;SDS011;52070;53.760;9.678;2024-03-02T04:34:47;37.25;;;16.10;;
65373;SDS011;52070;53.760;9.678;2024-03-02T04:37:14;38.97;;;16.98;;
65373;SDS011;52070;53.760;9.678;2024-03-02T04:39:42;32.30;;;15.25;;
65373;SDS011;52070;53.760;9.678;2024-03-02T04:42:09;35.63;;;15.25;;
65373;SDS011;52070;53.760;9.678;2024-03-02T04:44:36;34.28;;;16.42;;
65373;SDS011;52070;53.760;9.678;2024-03-02T04:47:03;40.10;;;16.98;;
65373;SDS011;52070;53.760;9.678;2024-03-02T04:49:31;37.30;;;15.80;;
65373;SDS011;52070;53.760;9.678;2024-03-02T04:51:57;32.42;;;14.38;;
65373;SDS011;52070;53.760;9.678;2024-03-02T04:54:24;39.60;;;15.45;;
65373;SDS011;52070;53.760;9.678;2024-03-02T04:56:53;35.83;;;15.93;;
65373;SDS011;52070;53.760;9.678;2024-03-02T04:59:19;37.92;;;15.50;;
65373;SDS011;52070;53.760;9.678;2024-03-02T05:01:46;38.25;;;15.80;;
65373;SDS011;52070;53.760;9.678;2024-03-02T05:04:13;38.10;;;15.23;;
65373;SDS011;52070;53.760;9.678;2024-03-02T05:06:40;37.80;;;15.52;;
65373;SDS011;52070;53.760;9.678;2024-03-02T05:09:07;39.13;;;15.95;;
65373;SDS011;52070;53.760;9.678;2024-03-02T05:11:34;36.22;;;15.57;;
65373;SDS011;52070;53.760;9.678;2024-03-02T05:16:43;36.17;;;15.20;;
65373;SDS011;52070;53.760;9.678;2024-03-02T05:19:10;31.52;;;15.60;;
65373;SDS011;52070;53.760;9.678;2024-03-02T05:21:37;35.00;;;15.43;;
65373;SDS011;52070;53.760;9.678;2024-03-02T05:24:04;41.85;;;15.55;;
65373;SDS011;52070;53.760;9.678;2024-03-02T05:26:31;36.28;;;15.38;;
65373;SDS011;52070;53.760;9.678;2024-03-02T05:28:58;30.83;;;14.90;;
65373;SDS011;52070;53.760;9.678;2024-03-02T05:31:26;35.10;;;15.63;;
65373;SDS011;52070;53.760;9.678;2024-03-02T05:33:53;33.15;;;14.90;;
65373;SDS011;52070;53.760;9.678;2024-03-02T05:36:20;29.75;;;14.55;;
65373;SDS011;52070;53.760;9.678;2024-03-02T05:38:47;32.33;;;15.48;;
65373;SDS011;52070;53.760;9.678;2024-03-02T05:41:14;35.97;;;15.40;;
65373;SDS011;52070;53.760;9.678;2024-03-02T05:43:41;34.63;;;14.30;;
65373;SDS011;52070;53.760;9.678;2024-03-02T05:46:08;37.38;;;14.90;;
65373;SDS011;52070;53.760;9.678;2024-03-02T05:48:36;33.35;;;14.82;;
65373;SDS011;52070;53.760;9.678;2024-03-02T05:51:03;28.33;;;14.27;;
65373;SDS011;52070;53.760;9.678;2024-03-02T05:53:30;30.83;;;14.50;;
65373;SDS011;52070;53.760;9.678;2024-03-02T05:55:57;35.33;;;14.50;;
65373;SDS011;52070;53.760;9.678;2024-03-02T05:58:24;36.72;;;14.82;;
65373;SDS011;52070;53.760;9.678;2024-03-02T06:01:02;33.75;;;13.57;;
65373;SDS011;52070;53.760;9.678;2024-03-02T06:03:30;35.67;;;14.90;;
65373;SDS011;52070;53.760;9.678;2024-03-02T06:05:58;38.35;;;15.18;;
65373;SDS011;52070;53.760;9.678;2024-03-02T06:08:25;34.13;;;14.90;;
65373;SDS011;52070;53.760;9.678;2024-03-02T06:10:52;30.52;;;14.02;;
65373;SDS011;52070;53.760;9.678;2024-03-02T06:13:19;33.58;;;14.50;;
65373;SDS011;52070;53.760;9.678;2024-03-02T06:15:46;29.70;;;14.10;;
65373;SDS011;52070;53.760;9.678;2024-03-02T06:18:13;31.77;;;14.55;;
65373;SDS011;52070;53.760;9.678;2024-03-02T06:20:40;30.33;;;13.85;;
65373;SDS011;52070;53.760;9.678;2024-03-02T06:23:08;32.33;;;13.48;;
65373;SDS011;52070;53.760;9.678;2024-03-02T06:25:35;34.58;;;14.38;;
65373;SDS011;52070;53.760;9.678;2024-03-02T06:28:02;30.65;;;14.55;;
65373;SDS011;52070;53.760;9.678;2024-03-02T06:30:30;31.58;;;14.27;;
65373;SDS011;52070;53.760;9.678;2024-03-02T06:32:56;31.27;;;14.57;;
65373;SDS011;52070;53.760;9.678;2024-03-02T06:35:23;30.35;;;14.02;;
65373;SDS011;52070;53.760;9.678;2024-03-02T06:37:50;34.42;;;14.82;;
65373;SDS011;52070;53.760;9.678;2024-03-02T06:40:18;34.33;;;14.32;;
65373;SDS011;52070;53.760;9.678;2024-03-02T06:42:46;33.63;;;14.73;;
65373;SDS011;52070;53.760;9.678;2024-03-02T06:45:13;40.42;;;14.73;;
65373;SDS011;52070;53.760;9.678;2024-03-02T06:47:40;34.83;;;14.88;;
65373;SDS011;52070;53.760;9.678;2024-03-02T06:50:07;33.42;;;14.95;;
65373;SDS011;52070;53.760;9.678;2024-03-02T06:52:37;35.88;;;14.40;;
65373;SDS011;52070;53.760;9.678;2024-03-02T06:58:40;32.58;;;13.40;;
65373;SDS011;52070;53.760;9.678;2024-03-02T07:01:08;36.47;;;15.25;;
65373;SDS011;52070;53.760;9.678;2024-03-02T07:03:35;39.63;;;16.15;;
65373;SDS011;52070;53.760;9.678;2024-03-02T07:06:02;37.25;;;14.65;;
65373;SDS011;52070;53.760;9.678;2024-03-02T07:08:30;32.92;;;14.93;;
65373;SDS011;52070;53.760;9.678;2024-03-02T07:10:57;38.97;;;14.93;;
65373;SDS011;52070;53.760;9.678;2024-03-02T07:13:24;32.47;;;15.63;;
65373;SDS011;52070;53.760;9.678;2024-03-02T07:15:52;35.03;;;14.40;;
65373;SDS011;52070;53.760;9.678;2024-03-02T07:18:48;32.80;;;14.40;;
65373;SDS011;52070;53.760;9.678;2024-03-02T07:21:17;33.08;;;15.23;;
65373;SDS011;52070;53.760;9.678;2024-03-02T07:23:44;35.50;;;15.30;;
65373;SDS011;52070;53.760;9.678;2024-03-02T07:26:11;35.47;;;14.65;;
65373;SDS011;52070;53.760;9.678;2024-03-02T07:28:38;37.13;;;15.63;;
65373;SDS011;52070;53.760;9.678;2024-03-02T07:31:07;34.15;;;15.73;;
65373;SDS011;52070;53.760;9.678;2024-03-02T07:33:35;30.63;;;14.60;;
65373;SDS011;52070;53.760;9.678;2024-03-02T07:36:02;33.67;;;14.57;;
65373;SDS011;52070;53.760;9.678;2024-03-02T07:38:29;33.30;;;14.63;;
65373;SDS011;52070;53.760;9.678;2024-03-02T07:40:57;35.67;;;14.82;;
65373;SDS011;52070;53.760;9.678;2024-03-02T07:43:24;30.58;;;14.80;;
65373;SDS011;52070;53.760;9.678;2024-03-02T07:45:51;32.17;;;14.95;;
65373;SDS011;52070;53.760;9.678;2024-03-02T07:48:19;30.65;;;13.77;;
65373;SDS011;52070;53.760;9.678;2024-03-02T07:50:46;31.80;;;13.98;;
65373;SDS011;52070;53.760;9.678;2024-03-02T07:53:13;31.27;;;13.80;;
65373;SDS011;52070;53.760;9.678;2024-03-02T07:55:40;29.00;;;13.43;;
65373;SDS011;52070;53.760;9.678;2024-03-02T07:58:07;30.98;;;14.48;;
65373;SDS011;52070;53.760;9.678;2024-03-02T08:00:38;32.15;;;12.68;;
65373;SDS011;52070;53.760;9.678;2024-03-02T08:03:05;27.05;;;13.75;;
65373;SDS011;52070;53.760;9.678;2024-03-02T08:05:34;29.55;;;13.43;;
65373;SDS011;52070;53.760;9.678;2024-03-02T08:08:01;26.80;;;12.55;;
65373;SDS011;52070;53.760;9.678;2024-03-02T08:10:27;27.92;;;12.70;;
65373;SDS011;52070;53.760;9.678;2024-03-02T08:12:54;29.67;;;13.55;;
65373;SDS011;52070;53.760;9.678;2024-03-02T08:15:21;29.40;;;12.88;;
65373;SDS011;52070;53.760;9.678;2024-03-02T08:17:49;25.48;;;13.23;;
65373;SDS011;52070;53.760;9.678;2024-03-02T08:20:16;28.08;;;13.20;;
65373;SDS011;52070;53.760;9.678;2024-03-02T08:22:44;28.45;;;12.95;;
65373;SDS011;52070;53.760;9.678;2024-03-02T08:25:12;26.45;;;12.70;;
65373;SDS011;52070;53.760;9.678;2024-03-02T08:27:39;26.30;;;13.35;;
65373;SDS011;52070;53.760;9.678;2024-03-02T08:30:06;24.48;;;12.18;;
65373;SDS011;52070;53.760;9.678;2024-03-02T08:32:36;26.77;;;11.98;;
65373;SDS011;52070;53.760;9.678;2024-03-02T08:35:03;27.48;;;12.35;;
65373;SDS011;52070;53.760;9.678;2024-03-02T08:37:31;29.38;;;11.93;;
65373;SDS011;52070;53.760;9.678;2024-03-02T08:39:59;27.67;;;12.57;;
65373;SDS011;52070;53.760;9.678;2024-03-02T08:42:26;23.83;;;11.93;;
65373;SDS011;52070;53.760;9.678;2024-03-02T08:44:53;25.00;;;11.50;;
65373;SDS011;52070;53.760;9.678;2024-03-02T08:47:20;23.98;;;12.05;;
65373;SDS011;52070;53.760;9.678;2024-03-02T08:49:47;26.58;;;11.65;;
65373;SDS011;52070;53.760;9.678;2024-03-02T08:52:14;28.88;;;11.98;;
65373;SDS011;52070;53.760;9.678;2024-03-02T08:54:41;26.23;;;12.27;;
65373;SDS011;52070;53.760;9.678;2024-03-02T08:57:09;26.27;;;11.32;;
65373;SDS011;52070;53.760;9.678;2024-03-02T08:59:36;24.63;;;12.20;;
65373;SDS011;52070;53.760;9.678;2024-03-02T09:02:03;25.30;;;11.55;;
65373;SDS011;52070;53.760;9.678;2024-03-02T09:04:30;24.83;;;10.65;;
65373;SDS011;52070;53.760;9.678;2024-03-02T09:06:57;25.00;;;10.93;;
65373;SDS011;52070;53.760;9.678;2024-03-02T09:09:24;26.70;;;11.27;;
65373;SDS011;52070;53.760;9.678;2024-03-02T09:11:51;24.65;;;11.32;;
65373;SDS011;52070;53.760;9.678;2024-03-02T09:14:21;24.13;;;11.52;;
65373;SDS011;52070;53.760;9.678;2024-03-02T09:16:49;25.75;;;11.10;;
65373;SDS011;52070;53.760;9.678;2024-03-02T09:19:15;22.48;;;10.80;;
65373;SDS011;52070;53.760;9.678;2024-03-02T09:21:42;24.58;;;10.93;;
65373;SDS011;52070;53.760;9.678;2024-03-02T09:24:10;25.77;;;11.40;;
65373;SDS011;52070;53.760;9.678;2024-03-02T09:26:38;18.33;;;9.77;;
65373;SDS011;52070;53.760;9.678;2024-03-02T09:29:05;21.63;;;10.05;;
65373;SDS011;52070;53.760;9.678;2024-03-02T09:31:38;23.20;;;10.38;;
65373;SDS011;52070;53.760;9.678;2024-03-02T09:34:06;21.98;;;10.27;;
65373;SDS011;52070;53.760;9.678;2024-03-02T09:36:33;19.92;;;9.85;;
65373;SDS011;52070;53.760;9.678;2024-03-02T09:38:59;18.33;;;10.27;;
65373;SDS011;52070;53.760;9.678;2024-03-02T09:41:27;20.88;;;10.00;;
65373;SDS011;52070;53.760;9.678;2024-03-02T09:43:54;20.15;;;9.35;;
65373;SDS011;52070;53.760;9.678;2024-03-02T09:46:23;24.27;;;10.35;;
65373;SDS011;52070;53.760;9.678;2024-03-02T09:48:51;18.40;;;9.32;;
65373;SDS011;52070;53.760;9.678;2024-03-02T09:51:18;20.48;;;8.63;;
65373;SDS011;52070;53.760;9.678;2024-03-02T09:53:46;19.30;;;10.30;;
65373;SDS011;52070;53.760;9.678;2024-03-02T09:56:14;19.23;;;9.32;;
65373;SDS011;52070;53.760;9.678;2024-03-02T09:58:42;20.02;;;9.93;;
65373;SDS011;52070;53.760;9.678;2024-03-02T10:01:09;21.80;;;9.48;;
65373;SDS011;52070;53.760;9.678;2024-03-02T10:03:36;18.30;;;8.93;;
65373;SDS011;52070;53.760;9.678;2024-03-02T10:08:47;22.98;;;8.93;;
65373;SDS011;52070;53.760;9.678;2024-03-02T10:11:27;20.25;;;9.07;;
65373;SDS011;52070;53.760;9.678;2024-03-02T10:14:03;15.55;;;8.00;;
65373;SDS011;52070;53.760;9.678;2024-03-02T10:16:34;17.10;;;8.32;;
65373;SDS011;52070;53.760;9.678;2024-03-02T10:19:17;19.98;;;9.20;;
65373;SDS011;52070;53.760;9.678;2024-03-02T10:21:47;17.55;;;8.32;;
65373;SDS011;52070;53.760;9.678;2024-03-02T10:24:14;18.47;;;8.37;;
65373;SDS011;52070;53.760;9.678;2024-03-02T10:26:41;17.88;;;8.48;;
65373;SDS011;52070;53.760;9.678;2024-03-02T10:29:09;16.13;;;8.27;;
65373;SDS011;52070;53.760;9.678;2024-03-02T10:31:37;18.40;;;8.07;;
65373;SDS011;52070;53.760;9.678;2024-03-02T10:34:04;21.17;;;8.10;;
65373;SDS011;52070;53.760;9.678;2024-03-02T10:36:32;18.00;;;7.35;;
65373;SDS011;52070;53.760;9.678;2024-03-02T10:39:02;16.73;;;7.70;;
65373;SDS011;52070;53.760;9.678;2024-03-02T10:41:32;15.10;;;7.40;;
65373;SDS011;52070;53.760;9.678;2024-03-02T10:44:01;17.48;;;7.32;;
65373;SDS011;52070;53.760;9.678;2024-03-02T10:46:29;13.18;;;7.18;;
65373;SDS011;52070;53.760;9.678;2024-03-02T10:48:57;15.77;;;7.28;;
65373;SDS011;52070;53.760;9.678;2024-03-02T10:51:26;14.70;;;7.82;;
65373;SDS011;52070;53.760;9.678;2024-03-02T10:53:57;14.40;;;7.28;;
65373;SDS011;52070;53.760;9.678;2024-03-02T10:56:28;15.45;;;6.50;;
65373;SDS011;52070;53.760;9.678;2024-03-02T10:58:59;14.50;;;7.85;;
65373;SDS011;52070;53.760;9.678;2024-03-02T11:01:29;16.00;;;7.60;;
65373;SDS011;52070;53.760;9.678;2024-03-02T11:03:58;14.75;;;7.45;;
65373;SDS011;52070;53.760;9.678;2024-03-02T11:06:26;13.60;;;7.20;;
65373;SDS011;52070;53.760;9.678;2024-03-02T11:08:57;12.98;;;7.15;;
65373;SDS011;52070;53.760;9.678;2024-03-02T11:11:32;13.23;;;6.97;;
65373;SDS011;52070;53.760;9.678;2024-03-02T11:14:04;15.07;;;7.07;;
65373;SDS011;52070;53.760;9.678;2024-03-02T11:16:35;14.98;;;6.35;;
65373;SDS011;52070;53.760;9.678;2024-03-02T11:19:04;15.43;;;7.43;;
65373;SDS011;52070;53.760;9.678;2024-03-02T11:21:32;14.43;;;7.05;;
65373;SDS011;52070;53.760;9.678;2024-03-02T11:24:00;18.35;;;7.60;;
65373;SDS011;52070;53.760;9.678;2024-03-02T11:26:28;13.27;;;6.88;;
65373;SDS011;52070;53.760;9.678;2024-03-02T11:28:56;11.50;;;6.13;;
65373;SDS011;52070;53.760;9.678;2024-03-02T11:34:28;11.00;;;6.55;;
65373;SDS011;52070;53.760;9.678;2024-03-02T11:36:57;15.23;;;7.32;;
65373;SDS011;52070;53.760;9.678;2024-03-02T11:39:24;17.20;;;8.27;;
65373;SDS011;52070;53.760;9.678;2024-03-02T11:41:51;13.13;;;6.85;;
65373;SDS011;52070;53.760;9.678;2024-03-02T11:44:22;12.95;;;5.80;;
65373;SDS011;52070;53.760;9.678;2024-03-02T11:46:52;12.68;;;6.40;;
65373;SDS011;52070;53.760;9.678;2024-03-02T11:49:20;9.68;;;5.38;;
65373;SDS011;52070;53.760;9.678;2024-03-02T11:52:03;8.75;;;5.45;;
65373;SDS011;52070;53.760;9.678;2024-03-02T11:54:31;11.05;;;5.70;;
65373;SDS011;52070;53.760;9.678;2024-03-02T11:56:59;12.02;;;5.93;;
65373;SDS011;52070;53.760;9.678;2024-03-02T11:59:30;9.68;;;5.40;;
65373;SDS011;52070;53.760;9.678;2024-03-02T12:01:57;12.82;;;5.70;;
65373;SDS011;52070;53.760;9.678;2024-03-02T12:04:26;12.13;;;5.40;;
65373;SDS011;52070;53.760;9.678;2024-03-02T12:06:54;9.70;;;5.72;;
65373;SDS011;52070;53.760;9.678;2024-03-02T12:09:22;13.70;;;5.85;;
65373;SDS011;52070;53.760;9.678;2024-03-02T12:12:00;8.48;;;5.00;;
65373;SDS011;52070;53.760;9.678;2024-03-02T12:14:29;10.50;;;5.43;;
65373;SDS011;52070;53.760;9.678;2024-03-02T12:16:57;11.13;;;5.35;;
65373;SDS011;52070;53.760;9.678;2024-03-02T12:19:25;12.23;;;5.15;;
65373;SDS011;52070;53.760;9.678;2024-03-02T12:21:53;12.57;;;5.72;;
65373;SDS011;52070;53.760;9.678;2024-03-02T12:24:20;9.82;;;5.68;;
65373;SDS011;52070;53.760;9.678;2024-03-02T12:26:48;11.85;;;5.00;;
65373;SDS011;52070;53.760;9.678;2024-03-02T12:29:16;10.18;;;5.57;;
65373;SDS011;52070;53.760;9.678;2024-03-02T12:31:44;10.57;;;5.78;;
65373;SDS011;52070;53.760;9.678;2024-03-02T12:34:12;12.55;;;6.25;;
65373;SDS011;52070;53.760;9.678;2024-03-02T12:36:39;9.10;;;5.32;;
65373;SDS011;52070;53.760;9.678;2024-03-02T12:39:07;10.38;;;6.05;;
65373;SDS011;52070;53.760;9.678;2024-03-02T12:41:35;11.27;;;4.82;;
65373;SDS011;52070;53.760;9.678;2024-03-02T12:44:04;12.38;;;5.10;;
65373;SDS011;52070;53.760;9.678;2024-03-02T12:46:31;11.30;;;5.55;;
65373;SDS011;52070;53.760;9.678;2024-03-02T12:49:04;10.98;;;5.05;;
65373;SDS011;52070;53.760;9.678;2024-03-02T12:51:35;16.23;;;5.45;;
65373;SDS011;52070;53.760;9.678;2024-03-02T12:54:03;9.07;;;4.97;;
65373;SDS011;52070;53.760;9.678;2024-03-02T12:56:30;11.20;;;5.00;;
65373;SDS011;52070;53.760;9.678;2024-03-02T12:58:58;12.68;;;5.00;;
65373;SDS011;52070;53.760;9.678;2024-03-02T13:01:25;11.38;;;5.00;;
65373;SDS011;52070;53.760;9.678;2024-03-02T13:03:52;8.50;;;4.72;;
65373;SDS011;52070;53.760;9.678;2024-03-02T13:06:22;12.50;;;5.10;;
65373;SDS011;52070;53.760;9.678;2024-03-02T13:08:49;9.18;;;5.13;;
65373;SDS011;52070;53.760;9.678;2024-03-02T13:11:16;11.38;;;5.32;;
65373;SDS011;52070;53.760;9.678;2024-03-02T13:13:44;9.32;;;4.68;;
65373;SDS011;52070;53.760;9.678;2024-03-02T13:16:11;7.63;;;4.20;;
65373;SDS011;52070;53.760;9.678;2024-03-02T13:18:39;9.90;;;4.30;;
65373;SDS011;52070;53.760;9.678;2024-03-02T13:21:07;10.57;;;4.68;;
65373;SDS011;52070;53.760;9.678;2024-03-02T13:23:35;12.98;;;5.15;;
65373;SDS011;52070;53.760;9.678;2024-03-02T13:26:02;8.75;;;4.07;;
65373;SDS011;52070;53.760;9.678;2024-03-02T13:28:30;9.07;;;4.38;;
65373;SDS011;52070;53.760;9.678;2024-03-02T13:30:57;5.88;;;3.55;;
65373;SDS011;52070;53.760;9.678;2024-03-02T13:33:24;7.63;;;3.83;;
65373;SDS011;52070;53.760;9.678;2024-03-02T13:35:51;8.57;;;3.88;;
65373;SDS011;52070;53.760;9.678;2024-03-02T13:38:18;11.10;;;3.97;;
65373;SDS011;52070;53.760;9.678;2024-03-02T13:40:48;6.80;;;3.53;;
65373;SDS011;52070;53.760;9.678;2024-03-02T13:43:16;6.32;;;3.65;;
65373;SDS011;52070;53.760;9.678;2024-03-02T13:45:44;8.32;;;3.70;;
65373;SDS011;52070;53.760;9.678;2024-03-02T13:48:10;10.70;;;3.72;;
65373;SDS011;52070;53.760;9.678;2024-03-02T13:50:37;12.18;;;4.82;;
65373;SDS011;52070;53.760;9.678;2024-03-02T13:53:04;10.73;;;4.95;;
65373;SDS011;52070;53.760;9.678;2024-03-02T13:55:32;8.88;;;4.28;;
65373;SDS011;52070;53.760;9.678;2024-03-02T13:58:00;8.45;;;4.50;;
65373;SDS011;52070;53.760;9.678;2024-03-02T14:00:27;10.10;;;5.25;;
65373;SDS011;52070;53.760;9.678;2024-03-02T14:02:55;8.63;;;4.88;;
65373;SDS011;52070;53.760;9.678;2024-03-02T14:05:22;10.45;;;4.47;;
65373;SDS011;52070;53.760;9.678;2024-03-02T14:07:49;7.32;;;4.55;;
65373;SDS011;52070;53.760;9.678;2024-03-02T14:10:16;14.77;;;5.15;;
65373;SDS011;52070;53.760;9.678;2024-03-02T14:12:47;9.80;;;5.10;;
65373;SDS011;52070;53.760;9.678;2024-03-02T14:15:16;8.93;;;4.85;;
65373;SDS011;52070;53.760;9.678;2024-03-02T14:17:43;8.05;;;4.40;;
65373;SDS011;52070;53.760;9.678;2024-03-02T14:20:10;11.20;;;4.07;;
65373;SDS011;52070;53.760;9.678;2024-03-02T14:22:39;8.25;;;3.88;;
65373;SDS011;52070;53.760;9.678;2024-03-02T14:25:06;8.93;;;4.53;;
65373;SDS011;52070;53.760;9.678;2024-03-02T14:27:33;9.75;;;4.72;;
65373;SDS011;52070;53.760;9.678;2024-03-02T14:30:02;9.40;;;4.40;;
65373;SDS011;52070;53.760;9.678;2024-03-02T14:32:32;9.80;;;4.95;;
65373;SDS011;52070;53.760;9.678;2024-03-02T14:34:59;8.48;;;4.70;;
65373;SDS011;52070;53.760;9.678;2024-03-02T14:37:26;13.63;;;4.90;;
65373;SDS011;52070;53.760;9.678;2024-03-02T14:39:53;10.13;;;5.00;;
65373;SDS011;52070;53.760;9.678;2024-03-02T14:42:21;8.30;;;4.53;;
65373;SDS011;52070;53.760;9.678;2024-03-02T14:44:48;12.13;;;4.50;;
65373;SDS011;52070;53.760;9.678;2024-03-02T14:47:15;11.85;;;4.18;;